Time;durP1;ratioP1;P1;durP2;ratioP2;P2;SDS_P1;SDS_P2;PMS_P1;PMS_P2;Temp;Humidity;BMP_temperature;BMP_pressure;BME280_temperature;BME280_humidity;BME280_pressure;Samples;Min_cycle;Max_cycle;Signal;HPM_P1;HPM_P2
2021/06/09 00:01:33;;;;;;;34.67;23.37;;;19.70;57.30;;;;;;5032469;27;20989;-83
2021/06/09 00:04:00;;;;;;;31.13;22.63;;;19.40;58.10;;;;;;5032388;27;20455;-83
2021/06/09 00:06:27;;;;;;;44.33;22.93;;;19.30;58.60;;;;;;5032576;28;20547;-83
2021/06/09 00:08:53;;;;;;;36.13;22.63;;;19.70;58.00;;;;;;5032750;28;20860;-83
2021/06/09 00:11:21;;;;;;;33.03;23.20;;;19.80;57.20;;;;;;5032176;28;20461;-83
2021/06/09 00:13:48;;;;;;;29.33;21.90;;;19.50;58.10;;;;;;5032898;28;20453;-83
2021/06/09 00:16:19;;;;;;;37.97;24.57;;;19.70;57.60;;;;;;5051381;28;20418;-83
2021/06/09 00:18:45;;;;;;;29.00;21.20;;;19.80;57.00;;;;;;5056068;28;20449;-83
2021/06/09 00:21:12;;;;;;;31.37;20.00;;;20.00;56.40;;;;;;5041624;28;20450;-85
2021/06/09 00:23:39;;;;;;;32.43;22.33;;;19.90;56.60;;;;;;5032811;28;20885;-84
2021/06/09 00:26:05;;;;;;;33.30;22.17;;;19.20;58.40;;;;;;5031771;27;20452;-84
2021/06/09 00:28:34;;;;;;;29.57;17.97;;;19.20;59.20;;;;;;5032220;28;20465;-83
2021/06/09 00:31:01;;;;;;;32.87;22.07;;;19.50;58.20;;;;;;5032704;28;20457;-83
2021/06/09 00:33:29;;;;;;;28.00;18.93;;;19.70;56.90;;;;;;5032747;28;20809;-84
2021/06/09 00:35:58;;;;;;;25.23;18.80;;;19.70;57.00;;;;;;5032074;28;20488;-84
2021/06/09 00:38:25;;;;;;;23.37;17.80;;;19.50;57.60;;;;;;5031410;27;20466;-83
2021/06/09 00:40:51;;;;;;;26.97;19.63;;;19.40;58.10;;;;;;5037857;28;20453;-85
2021/06/09 00:43:19;;;;;;;33.27;20.30;;;19.50;57.50;;;;;;5043585;28;20461;-84
2021/06/09 00:45:48;;;;;;;28.30;19.90;;;19.70;57.10;;;;;;5037516;28;20429;-85
2021/06/09 00:48:15;;;;;;;26.30;19.87;;;19.60;57.00;;;;;;5039664;28;20473;-84
2021/06/09 00:50:43;;;;;;;33.27;22.20;;;19.30;58.10;;;;;;5041380;28;20433;-84
2021/06/09 00:53:28;;;;;;;36.63;20.00;;;19.20;57.90;;;;;;5044682;28;20453;-84
2021/06/09 00:55:56;;;;;;;33.50;22.93;;;19.00;58.30;;;;;;5040255;28;20453;-84
2021/06/09 00:58:23;;;;;;;46.70;23.70;;;18.90;58.90;;;;;;5040303;28;20446;-84
2021/06/09 01:00:50;;;;;;;42.83;25.57;;;18.90;58.80;;;;;;5043239;28;20453;-84
2021/06/09 01:03:17;;;;;;;27.83;19.40;;;19.00;58.60;;;;;;5046439;28;20473;-84
2021/06/09 01:05:45;;;;;;;35.70;21.13;;;19.00;58.50;;;;;;5043406;28;20471;-84
2021/06/09 01:08:13;;;;;;;27.23;18.60;;;18.80;59.00;;;;;;5035045;28;20477;-84
2021/06/09 01:10:40;;;;;;;33.70;21.13;;;19.00;59.40;;;;;;5044886;28;20437;-83
2021/06/09 01:13:06;;;;;;;32.63;21.20;;;19.20;57.90;;;;;;5044591;28;20486;-83
2021/06/09 01:15:33;;;;;;;32.53;20.60;;;19.20;57.90;;;;;;5046832;28;20437;-83
2021/06/09 01:17:59;;;;;;;34.77;21.37;;;19.20;57.90;;;;;;5046744;28;20437;-83
2021/06/09 01:20:26;;;;;;;34.60;22.43;;;19.00;57.80;;;;;;5047108;28;20457;-83
2021/06/09 01:22:54;;;;;;;21.90;16.10;;;19.00;57.80;;;;;;5050804;28;20453;-83
2021/06/09 01:25:22;;;;;;;33.80;22.03;;;19.20;57.90;;;;;;5051775;27;20434;-83
2021/06/09 01:27:48;;;;;;;29.80;19.80;;;19.40;57.30;;;;;;5050714;28;20440;-83
2021/06/09 01:30:16;;;;;;;30.50;19.93;;;19.40;56.90;;;;;;5053310;28;20460;-82
2021/06/09 01:32:43;;;;;;;33.33;20.50;;;19.60;56.50;;;;;;5049012;28;20480;-84
2021/06/09 01:35:10;;;;;;;33.67;21.80;;;19.50;56.30;;;;;;5035806;28;20483;-84
2021/06/09 01:37:37;;;;;;;39.03;20.73;;;19.60;56.20;;;;;;5047965;28;20939;-83
2021/06/09 01:40:08;;;;;;;21.10;14.20;;;19.60;55.80;;;;;;5052036;27;20437;-85
2021/06/09 01:42:35;;;;;;;40.23;21.17;;;19.80;55.60;;;;;;5051509;28;20445;-82
2021/06/09 01:45:02;;;;;;;26.70;19.27;;;19.60;56.00;;;;;;5048364;28;20471;-83
2021/06/09 01:47:28;;;;;;;35.70;21.03;;;19.50;55.80;;;;;;5031216;28;20449;-84
2021/06/09 01:49:55;;;;;;;27.77;19.77;;;19.40;56.40;;;;;;5030578;28;20581;-83
2021/06/09 01:52:21;;;;;;;27.97;21.30;;;19.50;56.40;;;;;;5031415;28;20556;-84
2021/06/09 01:54:48;;;;;;;19.17;14.30;;;19.60;55.90;;;;;;5031097;28;20869;-83
2021/06/09 01:57:16;;;;;;;31.00;19.60;;;19.80;55.70;;;;;;5031487;28;20449;-83
2021/06/09 01:59:43;;;;;;;28.57;20.20;;;19.90;55.30;;;;;;5031122;28;20448;-84
2021/06/09 02:02:11;;;;;;;37.30;20.00;;;19.90;55.10;;;;;;5030887;28;20880;-84
2021/06/09 02:04:41;;;;;;;25.73;15.53;;;19.80;55.30;;;;;;5031241;28;20489;-84
2021/06/09 02:07:08;;;;;;;35.30;20.20;;;19.90;55.30;;;;;;5030496;28;20799;-85
2021/06/09 02:09:36;;;;;;;28.50;18.87;;;19.90;54.90;;;;;;5031581;28;20886;-84
2021/06/09 02:12:03;;;;;;;28.73;19.77;;;19.90;55.00;;;;;;5034433;28;20477;-84
2021/06/09 02:14:31;;;;;;;31.20;19.50;;;19.70;55.40;;;;;;5034277;28;20484;-84
2021/06/09 02:16:58;;;;;;;26.23;18.67;;;19.60;56.40;;;;;;5034516;28;20528;-85
2021/06/09 02:19:25;;;;;;;33.43;21.10;;;19.60;55.90;;;;;;5034620;28;20476;-85
2021/06/09 02:21:52;;;;;;;35.80;20.37;;;19.70;56.00;;;;;;5045775;28;20556;-83
2021/06/09 02:24:20;;;;;;;38.87;20.90;;;19.70;55.60;;;;;;5046262;28;20442;-83
2021/06/09 02:26:48;;;;;;;46.83;22.60;;;19.60;56.10;;;;;;5045658;27;20491;-83
2021/06/09 02:29:15;;;;;;;34.50;20.10;;;19.60;56.40;;;;;;5046185;28;21054;-84
2021/06/09 02:31:47;;;;;;;29.27;19.40;;;19.60;55.60;;;;;;5046625;28;20460;-84
2021/06/09 02:34:15;;;;;;;27.50;17.53;;;19.70;55.60;;;;;;5038948;28;20433;-85
2021/06/09 02:36:42;;;;;;;23.27;17.87;;;19.80;55.20;;;;;;5034763;28;20468;-85
2021/06/09 02:39:09;;;;;;;27.73;18.87;;;19.90;54.90;;;;;;5034400;28;20452;-83
2021/06/09 02:41:36;;;;;;;28.50;19.50;;;19.80;54.80;;;;;;5034130;28;20887;-83
2021/06/09 02:44:03;;;;;;;21.50;16.90;;;19.90;54.80;;;;;;5034271;28;20469;-84
2021/06/09 02:46:34;;;;;;;34.70;15.57;;;20.00;54.50;;;;;;5034170;28;20449;-85
2021/06/09 02:49:05;;;;;;;19.20;14.63;;;20.10;54.00;;;;;;5034117;28;20517;-84
2021/06/09 02:51:37;;;;;;;25.53;18.53;;;20.00;54.30;;;;;;5034437;28;20473;-84
2021/06/09 02:54:08;;;;;;;24.60;17.23;;;19.60;55.20;;;;;;5034309;28;20902;-84
2021/06/09 02:56:43;;;;;;;27.60;18.13;;;19.60;55.50;;;;;;5040498;28;20457;-84
2021/06/09 02:59:20;;;;;;;28.93;17.80;;;19.40;55.80;;;;;;5042129;28;20448;-84
2021/06/09 03:01:52;;;;;;;24.10;17.50;;;19.30;55.70;;;;;;5044019;28;20473;-83
2021/06/09 03:04:26;;;;;;;26.40;17.50;;;19.40;56.10;;;;;;5043517;28;20429;-84
2021/06/09 03:06:59;;;;;;;24.13;18.00;;;19.60;55.70;;;;;;5045858;28;20433;-83
2021/06/09 03:09:33;;;;;;;26.70;17.83;;;19.50;55.50;;;;;;5034505;28;20533;-83
2021/06/09 03:12:07;;;;;;;24.07;16.90;;;19.60;55.20;;;;;;5033641;28;20970;-83
2021/06/09 03:17:30;;;;;;;27.40;18.37;;;19.70;55.00;;;;;;5033825;28;20429;-84
2021/06/09 03:20:05;;;;;;;34.20;18.30;;;19.50;55.40;;;;;;5032714;28;20842;-83
2021/06/09 03:22:39;;;;;;;23.20;17.70;;;19.40;55.60;;;;;;5033029;28;20500;-84
2021/06/09 03:25:06;;;;;;;21.20;16.70;;;19.40;55.80;;;;;;5033239;28;20522;-83
2021/06/09 03:27:40;;;;;;;25.23;16.63;;;19.60;55.30;;;;;;5032856;28;20561;-84
2021/06/09 03:30:10;;;;;;;28.00;17.80;;;19.50;55.10;;;;;;5032994;28;20466;-84
2021/06/09 03:32:43;;;;;;;24.83;18.10;;;19.60;55.50;;;;;;5032695;28;20473;-84
2021/06/09 03:35:19;;;;;;;27.50;19.17;;;19.30;55.70;;;;;;5032752;28;20453;-84
2021/06/09 03:37:48;;;;;;;25.00;18.07;;;19.10;56.40;;;;;;5032386;28;20515;-83
2021/06/09 03:40:18;;;;;;;29.47;18.93;;;19.10;56.60;;;;;;5032995;27;20790;-84
2021/06/09 03:42:50;;;;;;;26.50;19.27;;;19.00;56.60;;;;;;5033253;28;20514;-84
2021/06/09 03:45:17;;;;;;;28.97;19.07;;;18.90;57.30;;;;;;5032942;28;20465;-84
2021/06/09 03:47:45;;;;;;;23.27;17.67;;;18.70;57.50;;;;;;5032515;28;20441;-84
2021/06/09 03:50:16;;;;;;;33.47;20.27;;;18.60;57.50;;;;;;5034990;28;20573;-85
2021/06/09 03:52:46;;;;;;;28.60;20.37;;;18.50;58.20;;;;;;5033251;28;20461;-84
2021/06/09 03:55:13;;;;;;;37.43;20.10;;;18.50;58.70;;;;;;5033430;28;20477;-84
2021/06/09 03:57:41;;;;;;;28.70;19.37;;;18.40;58.80;;;;;;5032677;28;20952;-84
2021/06/09 04:00:08;;;;;;;23.53;17.43;;;18.50;58.90;;;;;;5032808;28;20495;-83
2021/06/09 04:02:36;;;;;;;26.17;18.70;;;18.50;58.50;;;;;;5032106;28;20552;-84
2021/06/09 04:05:03;;;;;;;31.57;19.63;;;18.90;57.70;;;;;;5032585;28;20946;-86
2021/06/09 04:07:32;;;;;;;33.80;18.80;;;19.10;57.20;;;;;;5032021;28;20495;-85
2021/06/09 04:10:02;;;;;;;27.10;17.50;;;19.40;57.00;;;;;;5032632;28;20576;-83
2021/06/09 04:12:30;;;;;;;23.30;17.60;;;19.50;56.30;;;;;;5032532;28;21008;-84
2021/06/09 04:15:01;;;;;;;23.77;17.23;;;19.50;55.90;;;;;;5032840;28;20456;-84
2021/06/09 04:17:30;;;;;;;30.20;17.33;;;19.50;56.00;;;;;;5032446;28;20436;-84
2021/06/09 04:20:00;;;;;;;22.33;16.00;;;19.80;55.10;;;;;;5042095;27;20464;-84
2021/06/09 04:22:27;;;;;;;25.30;18.23;;;19.40;55.60;;;;;;5047900;28;20458;-84
2021/06/09 04:24:55;;;;;;;21.40;15.67;;;19.40;56.30;;;;;;5042768;28;20472;-84
2021/06/09 04:27:24;;;;;;;24.33;16.67;;;19.40;56.10;;;;;;5032778;28;20493;-84
2021/06/09 04:29:52;;;;;;;20.57;16.17;;;19.50;55.80;;;;;;5032618;28;20477;-84
2021/06/09 04:32:18;;;;;;;31.53;15.43;;;19.80;55.70;;;;;;5031427;28;20504;-85
2021/06/09 04:34:47;;;;;;;23.93;15.57;;;20.00;55.20;;;;;;5032484;28;20956;-85
2021/06/09 04:37:14;;;;;;;23.23;15.33;;;20.30;54.50;;;;;;5032553;28;20445;-85
2021/06/09 04:39:41;;;;;;;24.20;14.83;;;20.50;53.80;;;;;;5031759;28;20507;-84
2021/06/09 04:42:11;;;;;;;20.30;14.47;;;20.30;54.10;;;;;;5032494;28;20469;-84
2021/06/09 04:44:39;;;;;;;23.73;14.60;;;20.40;54.00;;;;;;5031802;28;20906;-84
2021/06/09 04:47:06;;;;;;;24.53;13.40;;;20.10;54.40;;;;;;5032011;28;20457;-84
2021/06/09 04:49:34;;;;;;;22.97;13.77;;;20.10;54.70;;;;;;5031221;28;20990;-84
2021/06/09 04:52:02;;;;;;;21.00;14.00;;;20.20;54.60;;;;;;5032324;28;20496;-84
2021/06/09 04:54:29;;;;;;;23.50;13.37;;;20.60;54.20;;;;;;5032337;28;20952;-84
2021/06/09 04:56:56;;;;;;;19.90;13.47;;;20.80;53.40;;;;;;5031499;28;20450;-85
2021/06/09 04:59:24;;;;;;;22.40;10.47;;;21.00;52.60;;;;;;5032704;28;20473;-84
2021/06/09 05:01:51;;;;;;;17.30;12.87;;;21.20;52.30;;;;;;5032391;28;20845;-84
2021/06/09 05:04:17;;;;;;;21.13;11.93;;;21.10;52.60;;;;;;5031710;28;20958;-86
2021/06/09 05:06:43;;;;;;;22.10;12.60;;;20.80;52.80;;;;;;5031444;28;20552;-84
2021/06/09 05:09:11;;;;;;;15.90;11.60;;;21.20;52.80;;;;;;5032977;28;20477;-84
2021/06/09 05:11:40;;;;;;;24.83;13.00;;;21.50;51.80;;;;;;5030994;28;20476;-84
2021/06/09 05:14:14;;;;;;;16.20;11.80;;;21.30;52.30;;;;;;5032135;28;20484;-84
2021/06/09 05:16:44;;;;;;;17.03;12.20;;;21.20;52.80;;;;;;5031160;28;20915;-84
2021/06/09 05:19:12;;;;;;;15.50;10.97;;;21.40;52.10;;;;;;5031418;27;20473;-84
2021/06/09 05:21:39;;;;;;;16.23;11.73;;;21.40;52.20;;;;;;5031604;28;20476;-85
2021/06/09 05:24:08;;;;;;;14.60;11.53;;;21.20;52.50;;;;;;5031485;28;20502;-84
2021/06/09 05:26:35;;;;;;;21.47;13.00;;;21.10;53.30;;;;;;5031044;28;20493;-84
2021/06/09 05:29:06;;;;;;;24.10;13.10;;;21.40;52.90;;;;;;5031659;28;20520;-84
2021/06/09 05:31:33;;;;;;;14.33;10.87;;;21.50;52.80;;;;;;5030881;28;20982;-83
2021/06/09 05:34:01;;;;;;;27.60;12.57;;;21.60;52.00;;;;;;5030973;28;20826;-83
2021/06/09 05:36:29;;;;;;;20.73;13.00;;;21.90;51.20;;;;;;5031718;28;20458;-84
2021/06/09 05:38:55;;;;;;;19.60;12.27;;;21.90;51.30;;;;;;5031103;28;20437;-84
2021/06/09 05:41:25;;;;;;;15.90;12.80;;;21.70;51.70;;;;;;5031020;28;20472;-84
2021/06/09 05:43:52;;;;;;;19.50;12.70;;;21.60;52.40;;;;;;5032706;28;20456;-84
2021/06/09 05:46:19;;;;;;;16.97;13.67;;;22.00;52.20;;;;;;5033606;28;20528;-84
2021/06/09 05:48:47;;;;;;;13.57;10.93;;;21.90;51.80;;;;;;5034878;28;20480;-85
2021/06/09 05:51:17;;;;;;;19.80;12.30;;;22.50;50.60;;;;;;5034943;28;20437;-84
2021/06/09 05:53:43;;;;;;;17.87;11.50;;;22.70;50.10;;;;;;5034462;28;20468;-84
2021/06/09 05:56:10;;;;;;;13.37;10.67;;;22.70;49.80;;;;;;5035337;28;20473;-83
2021/06/09 05:58:39;;;;;;;16.93;11.63;;;22.40;49.60;;;;;;5040331;28;20429;-85
2021/06/09 06:01:07;;;;;;;17.20;11.20;;;21.90;51.00;;;;;;5036847;28;20456;-86
2021/06/09 06:03:34;;;;;;;16.53;10.37;;;21.40;51.70;;;;;;5034206;28;20480;-85
2021/06/09 06:06:04;;;;;;;12.43;8.83;;;21.20;52.80;;;;;;5034187;28;20938;-86
2021/06/09 06:08:34;;;;;;;13.80;8.57;;;22.00;51.20;;;;;;5033390;28;20569;-86
2021/06/09 06:11:02;;;;;;;14.87;10.50;;;22.80;49.90;;;;;;5034254;28;20437;-86
2021/06/09 06:13:29;;;;;;;12.43;8.93;;;22.90;48.30;;;;;;5034715;28;20520;-88
2021/06/09 06:15:57;;;;;;;12.40;9.63;;;23.10;48.50;;;;;;5033595;28;20429;-87
2021/06/09 06:18:31;;;;;;;17.40;9.80;;;23.20;48.00;;;;;;5034803;28;20931;-88
2021/06/09 06:20:57;;;;;;;13.53;10.23;;;22.60;49.50;;;;;;5037211;28;20504;-89
2021/06/09 06:23:25;;;;;;;17.27;9.73;;;22.90;49.60;;;;;;5037247;28;20476;-89
2021/06/09 06:25:54;;;;;;;14.60;10.17;;;23.30;47.70;;;;;;5038561;28;20449;-89
2021/06/09 06:28:22;;;;;;;12.60;10.10;;;23.10;48.90;;;;;;5037471;28;20430;-89
2021/06/09 06:30:49;;;;;;;14.53;10.57;;;23.30;48.20;;;;;;5038708;27;20449;-89
2021/06/09 06:33:16;;;;;;;13.13;10.53;;;23.40;48.60;;;;;;5037440;28;20473;-89
2021/06/09 06:35:45;;;;;;;15.50;11.63;;;23.40;48.20;;;;;;5038130;28;20469;-88
2021/06/09 06:38:13;;;;;;;13.23;10.53;;;22.80;49.30;;;;;;5038152;28;20460;-89
2021/06/09 06:40:40;;;;;;;19.03;11.07;;;22.50;49.90;;;;;;5037612;27;20445;-89
2021/06/09 06:43:08;;;;;;;12.07;10.77;;;21.70;51.70;;;;;;5038343;28;20509;-88
2021/06/09 06:45:35;;;;;;;12.93;11.03;;;21.70;52.80;;;;;;5047529;28;20460;-88
2021/06/09 06:48:02;;;;;;;15.27;10.53;;;22.40;51.60;;;;;;5055794;28;20459;-88
2021/06/09 06:50:29;;;;;;;16.50;11.93;;;23.10;49.70;;;;;;5056277;28;20492;-89
2021/06/09 06:52:57;;;;;;;17.83;10.70;;;23.10;50.20;;;;;;5043937;28;20464;-88
2021/06/09 06:55:24;;;;;;;13.63;11.00;;;22.80;49.50;;;;;;5043175;27;20464;-88
2021/06/09 06:57:51;;;;;;;18.70;12.50;;;22.70;50.60;;;;;;5056314;28;20445;-88
2021/06/09 07:00:21;;;;;;;18.87;12.10;;;22.70;50.70;;;;;;5056907;28;20445;-88
2021/06/09 07:02:50;;;;;;;23.97;11.33;;;22.60;50.50;;;;;;5056666;28;20465;-88
2021/06/09 07:05:19;;;;;;;16.13;11.87;;;22.90;50.80;;;;;;5045718;28;20446;-89
2021/06/09 07:07:46;;;;;;;24.43;12.67;;;23.30;50.00;;;;;;5034648;28;20994;-88
2021/06/09 07:10:15;;;;;;;18.83;11.43;;;23.30;50.20;;;;;;5035531;28;20535;-90
2021/06/09 07:12:43;;;;;;;14.27;12.00;;;23.20;50.60;;;;;;5033520;28;21009;-88
2021/06/09 07:15:12;;;;;;;15.70;11.67;;;23.90;49.70;;;;;;5034483;28;20448;-89
2021/06/09 07:17:42;;;;;;;19.60;12.60;;;24.80;47.70;;;;;;5034183;28;20434;-89
2021/06/09 07:20:11;;;;;;;16.87;12.43;;;24.90;46.90;;;;;;5034606;28;20473;-89
2021/06/09 07:22:39;;;;;;;19.93;11.83;;;25.00;46.40;;;;;;5034656;28;20560;-88
2021/06/09 07:25:07;;;;;;;13.00;9.33;;;25.10;46.10;;;;;;5035001;28;20457;-89
2021/06/09 07:27:35;;;;;;;14.70;10.90;;;25.30;46.90;;;;;;5034152;28;20459;-89
2021/06/09 07:30:04;;;;;;;16.50;12.93;;;26.00;45.20;;;;;;5035270;28;20525;-90
2021/06/09 07:32:31;;;;;;;16.00;12.40;;;26.00;45.80;;;;;;5034893;28;20457;-89
2021/06/09 07:34:59;;;;;;;25.63;13.60;;;26.10;45.20;;;;;;5034344;28;20422;-89
2021/06/09 07:37:27;;;;;;;18.00;12.70;;;26.00;44.40;;;;;;5035135;28;20452;-90
2021/06/09 07:39:57;;;;;;;17.90;13.37;;;26.00;44.10;;;;;;5033960;28;20457;-90
2021/06/09 07:42:26;;;;;;;23.10;13.33;;;25.80;44.70;;;;;;5033554;28;20480;-89
2021/06/09 07:44:57;;;;;;;22.63;14.87;;;25.50;45.50;;;;;;5034255;27;20454;-89
2021/06/09 07:47:25;;;;;;;17.23;12.50;;;25.60;45.80;;;;;;5034102;28;20932;-90
2021/06/09 07:49:54;;;;;;;25.50;13.00;;;26.00;45.10;;;;;;5033986;28;20917;-90
2021/06/09 07:52:25;;;;;;;17.83;13.77;;;26.10;44.80;;;;;;5035018;28;20494;-90
2021/06/09 07:54:52;;;;;;;17.90;13.73;;;26.40;45.10;;;;;;5034715;28;20978;-90
2021/06/09 07:57:21;;;;;;;16.97;13.10;;;26.40;44.50;;;;;;5034263;28;20804;-90
2021/06/09 07:59:49;;;;;;;18.47;13.47;;;26.60;44.40;;;;;;5034370;27;20449;-90
2021/06/09 08:02:18;;;;;;;19.37;13.70;;;26.40;44.30;;;;;;5034981;28;20548;-89
2021/06/09 08:04:45;;;;;;;18.03;14.00;;;26.20;44.70;;;;;;5033806;28;20854;-90
2021/06/09 08:07:11;;;;;;;21.63;16.40;;;26.40;44.70;;;;;;5031738;28;20483;-90
2021/06/09 08:09:39;;;;;;;28.23;16.63;;;26.00;43.50;;;;;;5033567;28;20485;-90
2021/06/09 08:12:07;;;;;;;24.53;17.27;;;25.70;45.70;;;;;;5033649;28;20504;-90
2021/06/09 08:14:35;;;;;;;27.70;16.97;;;26.00;44.70;;;;;;5033186;28;20460;-90
2021/06/09 08:17:01;;;;;;;23.73;16.33;;;26.20;44.40;;;;;;5033721;28;20430;-90
2021/06/09 08:19:28;;;;;;;23.27;18.23;;;26.40;44.10;;;;;;5033174;28;20449;-89
2021/06/09 08:21:55;;;;;;;27.07;17.90;;;26.40;43.90;;;;;;5037124;28;20998;-89
2021/06/09 08:24:24;;;;;;;28.57;17.23;;;26.30;43.70;;;;;;5044819;28;20442;-90
2021/06/09 08:27:00;;;;;;;21.63;16.27;;;26.30;44.20;;;;;;5043446;28;20457;-89
2021/06/09 08:29:27;;;;;;;26.60;16.43;;;26.30;44.30;;;;;;5035866;27;21000;-89
2021/06/09 08:31:53;;;;;;;23.00;17.07;;;26.60;44.00;;;;;;5038553;28;20485;-89
2021/06/09 08:34:19;;;;;;;24.30;16.20;;;27.10;43.20;;;;;;5034830;28;20457;-89
2021/06/09 08:36:46;;;;;;;18.27;15.60;;;27.50;43.50;;;;;;5034037;28;20458;-89
2021/06/09 08:39:12;;;;;;;21.17;15.83;;;28.10;44.00;;;;;;5038348;28;20449;-90
2021/06/09 08:41:40;;;;;;;24.70;16.20;;;28.30;41.20;;;;;;5034905;28;20464;-90
2021/06/09 08:44:08;;;;;;;26.27;16.30;;;28.40;40.80;;;;;;5039025;28;20449;-90
2021/06/09 08:46:36;;;;;;;22.80;14.73;;;28.20;40.60;;;;;;5035981;28;20478;-90
2021/06/09 08:49:04;;;;;;;22.30;15.63;;;28.30;40.60;;;;;;5043030;28;20477;-89
2021/06/09 08:51:32;;;;;;;23.90;16.30;;;28.60;42.20;;;;;;5046424;27;20465;-89
2021/06/09 08:54:03;;;;;;;26.80;15.83;;;28.40;40.40;;;;;;5035226;28;20555;-89
2021/06/09 08:56:31;;;;;;;20.70;16.30;;;28.50;41.80;;;;;;5032975;28;20495;-89
2021/06/09 08:58:59;;;;;;;21.00;16.30;;;28.60;40.20;;;;;;5032944;28;20480;-89
2021/06/09 09:01:26;;;;;;;21.03;16.60;;;27.90;42.00;;;;;;5037510;28;20508;-90
2021/06/09 09:03:54;;;;;;;24.30;15.60;;;28.50;41.20;;;;;;5034425;28;20489;-90
2021/06/09 09:06:20;;;;;;;19.33;15.00;;;27.90;40.00;;;;;;5037650;28;20433;-90
2021/06/09 09:08:47;;;;;;;22.43;14.80;;;28.40;40.50;;;;;;5033592;28;20803;-90
2021/06/09 09:11:13;;;;;;;27.83;16.40;;;28.50;39.60;;;;;;5036138;28;20484;-88
2021/06/09 09:13:41;;;;;;;20.63;16.20;;;28.50;40.30;;;;;;5035249;27;20434;-90
2021/06/09 09:16:09;;;;;;;25.70;17.63;;;28.30;40.20;;;;;;5035448;28;20810;-89
2021/06/09 09:18:42;;;;;;;28.60;15.70;;;28.60;41.10;;;;;;5036903;28;20491;-89
2021/06/09 09:21:10;;;;;;;25.60;17.33;;;28.80;40.70;;;;;;5036895;28;20414;-89
2021/06/09 09:23:37;;;;;;;32.37;16.70;;;29.80;38.30;;;;;;5035767;28;20983;-89
2021/06/09 09:26:23;;;;;;;22.77;17.33;;;30.20;36.70;;;;;;5033755;27;20477;-90
2021/06/09 09:28:49;;;;;;;20.10;15.23;;;29.80;37.60;;;;;;5030915;28;20473;-90
2021/06/09 09:31:18;;;;;;;24.90;15.80;;;29.90;37.70;;;;;;5033768;28;20643;-90
2021/06/09 09:33:46;;;;;;;20.90;16.30;;;30.10;37.40;;;;;;5032991;28;20472;-89
2021/06/09 09:36:23;;;;;;;23.90;18.20;;;30.00;37.10;;;;;;5038380;28;20453;-87
2021/06/09 09:38:51;;;;;;;25.77;17.10;;;29.60;37.50;;;;;;5037130;28;20887;-88
2021/06/09 09:41:18;;;;;;;23.50;15.03;;;29.40;37.90;;;;;;5039427;27;20453;-87
2021/06/09 09:43:48;;;;;;;19.67;15.10;;;29.00;39.80;;;;;;5039907;28;20488;-88
2021/06/09 09:46:17;;;;;;;23.80;16.30;;;29.30;38.20;;;;;;5038767;28;20455;-89
2021/06/09 09:49:00;;;;;;;25.37;16.17;;;29.60;38.40;;;;;;5034517;28;20438;-89
2021/06/09 09:51:29;;;;;;;21.33;15.20;;;29.50;38.40;;;;;;5037745;28;20863;-88
2021/06/09 09:53:56;;;;;;;22.37;16.90;;;29.60;37.60;;;;;;5038692;27;20453;-89
2021/06/09 09:56:26;;;;;;;20.37;15.37;;;29.10;38.10;;;;;;5034530;28;20467;-89
2021/06/09 09:58:54;;;;;;;32.60;15.90;;;29.50;38.80;;;;;;5031705;28;20457;-89
2021/06/09 10:01:23;;;;;;;28.37;15.90;;;30.40;37.60;;;;;;5031044;28;20453;-89
2021/06/09 10:03:53;;;;;;;22.23;16.87;;;30.60;36.50;;;;;;5031971;28;20457;-89
2021/06/09 10:06:29;;;;;;;23.43;17.47;;;30.20;36.40;;;;;;5033229;28;20448;-89
2021/06/09 10:08:57;;;;;;;21.23;16.57;;;29.80;37.30;;;;;;5031153;28;20479;-90
2021/06/09 10:11:25;;;;;;;22.40;16.53;;;28.40;40.10;;;;;;5031375;28;21010;-89
2021/06/09 10:13:51;;;;;;;24.70;15.97;;;29.30;38.40;;;;;;5034706;28;20547;-90
2021/06/09 10:16:32;;;;;;;20.00;15.20;;;29.90;37.70;;;;;;5032146;28;20449;-89
2021/06/09 10:19:06;;;;;;;21.83;16.83;;;30.20;37.00;;;;;;5041131;27;20437;-89
2021/06/09 10:21:34;;;;;;;18.63;15.00;;;29.90;37.70;;;;;;5036326;28;20553;-88
2021/06/09 10:24:04;;;;;;;27.60;16.10;;;29.70;37.60;;;;;;5035145;28;20474;-88
2021/06/09 10:26:30;;;;;;;27.87;18.00;;;28.60;39.90;;;;;;5043094;28;20457;-90
2021/06/09 10:29:03;;;;;;;22.80;16.37;;;28.60;39.80;;;;;;5041639;28;20913;-91
2021/06/09 10:31:31;;;;;;;21.30;16.20;;;28.70;39.50;;;;;;5040969;28;20544;-90
2021/06/09 10:33:57;;;;;;;17.83;14.87;;;29.00;38.90;;;;;;5044566;28;20444;-89
2021/06/09 10:36:26;;;;;;;27.23;16.90;;;29.10;39.00;;;;;;5049755;28;20546;-90
2021/06/09 10:38:54;;;;;;;25.47;16.30;;;29.30;38.90;;;;;;5049872;28;20495;-89
2021/06/09 10:41:24;;;;;;;22.37;17.00;;;29.30;38.10;;;;;;5050523;28;20456;-89
2021/06/09 10:43:54;;;;;;;20.97;15.97;;;29.10;39.30;;;;;;5049196;28;20453;-89
2021/06/09 10:46:24;;;;;;;24.23;18.00;;;28.80;39.80;;;;;;5050234;28;20433;-89
2021/06/09 10:48:56;;;;;;;24.23;16.70;;;28.30;40.30;;;;;;5047141;28;20440;-91
2021/06/09 10:51:24;;;;;;;32.77;17.20;;;28.40;40.00;;;;;;5049775;27;20460;-89
2021/06/09 10:53:52;;;;;;;27.60;17.23;;;28.60;40.50;;;;;;5047547;27;20438;-89
2021/06/09 10:56:20;;;;;;;20.33;14.77;;;28.40;40.10;;;;;;5038684;28;20453;-90
2021/06/09 10:58:48;;;;;;;21.80;15.53;;;28.20;41.60;;;;;;5039684;28;20441;-89
2021/06/09 11:01:15;;;;;;;30.20;16.60;;;28.60;41.00;;;;;;5036160;27;20445;-89
2021/06/09 11:03:46;;;;;;;24.70;16.67;;;29.00;39.10;;;;;;5045397;28;20522;-89
2021/06/09 11:06:13;;;;;;;25.73;17.23;;;28.70;39.50;;;;;;5041683;28;20446;-89
2021/06/09 11:08:39;;;;;;;30.30;17.77;;;27.80;40.40;;;;;;5033952;28;20930;-89
2021/06/09 11:11:20;;;;;;;25.87;18.90;;;27.20;43.30;;;;;;5034357;28;20521;-90
2021/06/09 11:13:48;;;;;;;21.37;15.80;;;27.70;42.90;;;;;;5034041;28;20425;-89
2021/06/09 11:16:18;;;;;;;20.60;14.80;;;28.30;40.10;;;;;;5033808;27;20950;-89
2021/06/09 11:18:46;;;;;;;22.10;16.47;;;28.30;40.10;;;;;;5033938;28;20455;-89
2021/06/09 11:21:15;;;;;;;22.83;15.77;;;28.20;39.90;;;;;;5046716;28;20433;-89
2021/06/09 11:23:43;;;;;;;34.40;23.10;;;28.50;40.10;;;;;;5056592;27;20432;-87
2021/06/09 11:26:26;;;;;;;20.47;15.70;;;28.60;39.60;;;;;;5056465;28;20440;-89
2021/06/09 11:28:53;;;;;;;19.90;16.00;;;28.30;39.20;;;;;;5056377;28;20445;-89
2021/06/09 11:31:25;;;;;;;19.77;14.47;;;27.90;40.60;;;;;;5056539;28;20440;-88
2021/06/09 11:33:59;;;;;;;18.10;14.10;;;28.40;39.80;;;;;;5056352;28;20445;-89
2021/06/09 11:36:32;;;;;;;25.90;14.30;;;27.80;40.80;;;;;;5056455;28;20448;-89
2021/06/09 11:39:04;;;;;;;18.30;14.50;;;27.30;41.30;;;;;;5045313;28;20502;-89
2021/06/09 11:41:37;;;;;;;29.73;17.53;;;27.00;42.60;;;;;;5056161;28;20460;-88
2021/06/09 11:44:04;;;;;;;26.00;15.80;;;26.60;43.20;;;;;;5055195;28;20435;-89
2021/06/09 11:46:33;;;;;;;21.53;15.80;;;26.40;44.00;;;;;;5045158;28;20448;-89
2021/06/09 11:49:01;;;;;;;24.70;17.50;;;26.60;44.50;;;;;;5046067;28;20457;-89
2021/06/09 11:51:34;;;;;;;22.70;17.87;;;26.70;43.80;;;;;;5053041;28;20445;-90
2021/06/09 11:54:16;;;;;;;21.73;16.70;;;26.20;44.70;;;;;;5050959;28;20445;-89
2021/06/09 11:56:45;;;;;;;23.67;16.93;;;26.70;43.40;;;;;;5046205;28;20398;-89
2021/06/09 11:59:28;;;;;;;24.77;18.00;;;27.00;43.10;;;;;;5079389;22;20485;-88
2021/06/09 12:01:58;;;;;;;27.90;18.70;;;26.80;43.10;;;;;;5117541;28;20428;-88
2021/06/09 12:04:26;;;;;;;28.27;18.90;;;26.70;43.30;;;;;;5117198;28;20810;-88
2021/06/09 12:06:59;;;;;;;24.73;17.60;;;26.40;44.60;;;;;;5097529;28;20450;-87
2021/06/09 12:09:30;;;;;;;26.90;17.60;;;26.70;43.40;;;;;;5097132;28;20478;-87
2021/06/09 12:12:02;;;;;;;26.03;17.63;;;27.20;43.30;;;;;;5102757;28;20466;-87
2021/06/09 12:14:31;;;;;;;19.70;15.03;;;27.70;42.30;;;;;;5118120;28;20399;-87
2021/06/09 12:17:15;;;;;;;22.60;15.93;;;27.80;41.30;;;;;;5101079;28;20481;-87
2021/06/09 12:19:43;;;;;;;23.13;16.90;;;28.20;40.70;;;;;;5096779;28;20461;-87
2021/06/09 12:22:11;;;;;;;19.07;15.23;;;28.00;40.50;;;;;;5097281;28;20434;-87
2021/06/09 12:24:39;;;;;;;19.47;14.33;;;28.30;40.50;;;;;;5097074;28;20847;-88
2021/06/09 12:27:10;;;;;;;18.00;13.40;;;28.10;38.10;;;;;;5096990;28;20445;-87
2021/06/09 12:29:37;;;;;;;19.97;14.23;;;27.90;39.60;;;;;;5097644;28;20466;-87
2021/06/09 12:32:17;;;;;;;18.23;13.20;;;28.10;38.00;;;;;;5096547;28;20450;-87
2021/06/09 12:34:52;;;;;;;19.20;11.17;;;28.40;37.20;;;;;;5097938;28;20426;-87
2021/06/09 12:37:19;;;;;;;17.90;11.93;;;28.70;36.90;;;;;;5097021;28;20840;-87
2021/06/09 12:39:52;;;;;;;13.87;11.50;;;28.80;36.60;;;;;;5097482;28;20487;-87